Time;durP1;ratioP1;P1;durP2;ratioP2;P2;SDS_P1;SDS_P2;PMS_P1;PMS_P2;Temp;Humidity;BMP_temperature;BMP_pressure;BME280_temperature;BME280_humidity;BME280_pressure;Samples;Min_cycle;Max_cycle;Signal;HPM_P1;HPM_P2
2022/08/31 00:06:09;;;;;;;0.80;0.80;;;;;;;26.43;45.19;95091.63;5046249;28;20199;-63
2022/08/31 00:08:35;;;;;;;3.80;2.67;;;;;;;26.34;45.50;95093.72;5044053;28;20215;-63
2022/08/31 00:11:06;;;;;;;1.20;1.20;;;;;;;26.51;44.90;95087.97;5042603;28;20248;-61
2022/08/31 00:13:35;;;;;;;1.43;1.33;;;;;;;26.38;45.29;95083.84;5045891;28;20689;-62
2022/08/31 00:16:03;;;;;;;2.20;1.33;;;;;;;26.42;45.06;95079.31;5055054;28;20222;-63
2022/08/31 00:18:30;;;;;;;1.30;0.83;;;;;;;25.92;45.99;95087.31;5059687;28;20254;-62
2022/08/31 00:20:57;;;;;;;2.53;2.37;;;;;;;26.08;45.89;95090.81;5047661;28;20197;-61
2022/08/31 00:23:24;;;;;;;1.13;1.10;;;;;;;26.19;45.74;95097.22;5030990;28;20251;-63
2022/08/31 00:25:51;;;;;;;1.07;1.03;;;;;;;26.33;45.57;95086.78;5062307;28;20249;-62
2022/08/31 00:28:18;;;;;;;1.83;1.47;;;;;;;26.28;45.75;95086.25;5070168;28;20192;-62
2022/08/31 00:30:47;;;;;;;1.77;1.63;;;;;;;26.31;45.50;95085.59;5070785;28;20249;-62
2022/08/31 00:33:15;;;;;;;6.40;1.33;;;;;;;26.41;45.31;95093.88;5057404;28;20226;-62
2022/08/31 00:35:43;;;;;;;1.37;1.27;;;;;;;26.11;45.73;95062.47;5045551;28;20227;-61
2022/08/31 00:38:11;;;;;;;3.10;1.53;;;;;;;26.27;45.69;95090.88;5055410;28;20196;-63
2022/08/31 00:40:41;;;;;;;3.27;2.17;;;;;;;26.23;45.73;95090.00;5048344;28;20197;-62
2022/08/31 00:43:29;;;;;;;1.03;1.03;;;;;;;26.15;46.05;95085.59;5063255;28;20236;-63
2022/08/31 00:45:56;;;;;;;0.60;0.60;;;;;;;26.15;45.84;95087.53;5050672;28;20204;-62
2022/08/31 00:48:23;;;;;;;3.00;1.90;;;;;;;26.21;45.61;95104.91;5069787;28;20199;-65
2022/08/31 00:50:50;;;;;;;1.50;1.23;;;;;;;26.28;45.45;95100.50;5047754;28;20204;-63
2022/08/31 00:53:18;;;;;;;1.10;1.10;;;;;;;26.26;45.69;95105.44;5061275;28;20648;-61
2022/08/31 00:55:46;;;;;;;2.30;2.03;;;;;;;26.27;45.92;95101.63;5045363;28;20201;-60
2022/08/31 00:58:13;;;;;;;0.73;0.73;;;;;;;26.29;45.49;95107.44;5042430;28;20291;-62
2022/08/31 01:00:46;;;;;;;0.63;0.63;;;;;;;26.05;45.69;95096.88;5054575;28;20222;-62
2022/08/31 01:03:14;;;;;;;1.83;1.73;;;;;;;26.10;45.36;95099.28;5070598;28;20307;-62
2022/08/31 01:05:42;;;;;;;1.80;1.70;;;;;;;26.19;45.32;95107.94;5037465;28;20323;-62
2022/08/31 01:08:09;;;;;;;1.30;1.20;;;;;;;26.12;45.50;95107.78;5060610;28;20643;-62
2022/08/31 01:10:42;;;;;;;1.10;1.03;;;;;;;26.09;45.44;95095.06;5055975;28;20204;-62
2022/08/31 01:13:12;;;;;;;0.50;0.50;;;;;;;26.06;45.38;95100.34;5061278;28;20208;-63
2022/08/31 01:15:47;;;;;;;22.17;1.33;;;;;;;26.22;45.09;95099.22;5065724;28;20204;-62
2022/08/31 01:18:18;;;;;;;1.37;1.27;;;;;;;25.98;45.46;95094.00;5059376;28;20204;-64
2022/08/31 01:21:17;;;;;;;0.93;0.90;;;;;;;26.04;45.48;95095.31;5065682;28;20192;-62
2022/08/31 01:23:44;;;;;;;1.63;1.40;;;;;;;26.02;45.31;95100.25;5072039;28;20239;-63
2022/08/31 01:26:18;;;;;;;1.13;0.87;;;;;;;25.82;45.91;95093.22;5056209;28;20199;-63
2022/08/31 01:28:48;;;;;;;2.47;0.93;;;;;;;25.77;46.13;95102.31;5058414;28;20179;-62
2022/08/31 01:31:23;;;;;;;1.37;1.27;;;;;;;26.01;45.41;95101.34;5049578;28;20265;-62
2022/08/31 01:33:50;;;;;;;3.27;1.40;;;;;;;26.00;45.94;95102.50;5059968;28;20187;-64
2022/08/31 01:36:18;;;;;;;1.27;1.07;;;;;;;26.01;45.90;95101.34;5054324;28;20539;-61
2022/08/31 01:38:45;;;;;;;1.27;1.17;;;;;;;26.08;45.24;95096.19;5048920;28;20197;-62
2022/08/31 01:41:17;;;;;;;1.47;1.37;;;;;;;26.05;45.11;95096.88;5049202;28;20198;-63
2022/08/31 01:43:44;;;;;;;1.63;1.53;;;;;;;25.87;45.81;95106.38;5059481;28;20255;-63
2022/08/31 01:46:12;;;;;;;1.03;1.03;;;;;;;25.97;45.61;95095.13;5063994;28;20284;-62
2022/08/31 01:48:42;;;;;;;2.00;1.50;;;;;;;25.89;45.63;95093.41;5052762;28;20189;-61
2022/08/31 01:51:11;;;;;;;1.70;1.23;;;;;;;25.82;46.14;95094.00;5036144;28;20652;-61
2022/08/31 01:53:42;;;;;;;1.03;1.00;;;;;;;25.97;45.51;95084.38;5034665;28;20188;-63
2022/08/31 01:56:21;;;;;;;0.50;0.50;;;;;;;26.09;45.41;95102.34;5043254;28;20196;-62
2022/08/31 01:58:49;;;;;;;2.77;1.43;;;;;;;26.01;45.44;95101.34;5048835;28;20639;-61
2022/08/31 02:01:36;;;;;;;1.87;1.70;;;;;;;25.79;45.91;95099.28;5068318;28;20948;-61
2022/08/31 02:04:07;;;;;;;1.43;1.33;;;;;;;25.84;45.88;95101.69;5060973;28;20220;-62
2022/08/31 02:06:35;;;;;;;1.13;0.93;;;;;;;25.73;46.21;95095.31;5044811;28;20208;-63
2022/08/31 02:09:05;;;;;;;1.70;1.30;;;;;;;25.71;46.17;95094.88;5062303;28;20207;-63
2022/08/31 02:11:32;;;;;;;1.07;1.03;;;;;;;25.71;46.07;95097.56;5048226;28;20674;-62
2022/08/31 02:13:59;;;;;;;0.53;0.53;;;;;;;25.64;46.43;95097.34;5051405;28;20246;-61
2022/08/31 02:16:26;;;;;;;1.53;1.43;;;;;;;25.69;46.13;95097.88;5060524;28;20196;-63
2022/08/31 02:18:53;;;;;;;1.73;1.10;;;;;;;25.71;46.03;95097.56;5065476;28;20308;-61
2022/08/31 02:21:20;;;;;;;0.93;0.70;;;;;;;25.47;46.78;95103.06;5067994;28;20192;-63
2022/08/31 02:23:48;;;;;;;1.80;1.57;;;;;;;25.51;46.42;95093.97;5055810;28;20574;-63
2022/08/31 02:26:16;;;;;;;1.23;0.93;;;;;;;25.12;47.12;95096.72;5054820;28;20212;-62
2022/08/31 02:28:45;;;;;;;0.87;0.80;;;;;;;25.38;46.88;95097.88;5073451;28;20295;-63
2022/08/31 02:31:13;;;;;;;2.37;1.50;;;;;;;25.34;46.69;95093.47;5065596;28;20280;-62
2022/08/31 02:33:48;;;;;;;1.47;1.37;;;;;;;25.04;47.03;95058.19;5045979;28;20211;-62
2022/08/31 02:36:15;;;;;;;2.03;1.63;;;;;;;25.35;46.51;95089.66;5041994;28;20732;-62
2022/08/31 02:38:42;;;;;;;0.50;0.50;;;;;;;25.35;46.77;95086.97;5038812;28;20200;-61
2022/08/31 02:41:09;;;;;;;2.10;1.17;;;;;;;25.13;47.24;95082.19;5063369;28;20722;-61
2022/08/31 02:43:38;;;;;;;1.23;1.13;;;;;;;25.24;47.02;95099.31;5055332;28;20235;-63
2022/08/31 02:46:05;;;;;;;2.10;1.80;;;;;;;25.22;46.59;95090.88;5055187;28;20207;-63
2022/08/31 02:48:39;;;;;;;1.17;1.07;;;;;;;25.29;46.74;95096.41;5070562;28;20208;-62
2022/08/31 02:51:10;;;;;;;0.50;0.50;;;;;;;25.01;47.61;95105.25;5043197;28;20580;-63
2022/08/31 02:53:38;;;;;;;1.80;1.43;;;;;;;25.18;46.94;95095.34;5070946;28;20196;-62
2022/08/31 02:56:06;;;;;;;1.63;1.53;;;;;;;24.99;47.55;95098.66;5054035;28;20220;-62
2022/08/31 02:58:35;;;;;;;1.07;1.07;;;;;;;24.96;47.57;95097.44;5062113;28;20283;-62
2022/08/31 03:01:02;;;;;;;3.07;1.63;;;;;;;25.14;47.03;95089.09;5032839;28;20189;-63
2022/08/31 03:03:31;;;;;;;2.97;1.97;;;;;;;25.04;47.55;95091.16;5058949;28;20251;-61
2022/08/31 03:05:59;;;;;;;1.47;1.37;;;;;;;25.08;47.39;95100.09;5043507;28;20223;-62
2022/08/31 03:08:26;;;;;;;6.23;1.43;;;;;;;25.15;47.23;95101.38;5071162;28;20563;-63
2022/08/31 03:10:56;;;;;;;1.60;1.50;;;;;;;25.19;46.97;95095.00;5082932;28;20200;-61
2022/08/31 03:13:23;;;;;;;0.30;0.30;;;;;;;25.02;47.36;95098.75;5062145;28;20614;-61
2022/08/31 03:15:51;;;;;;;0.37;0.37;;;;;;;25.04;47.33;95101.88;5071501;28;20216;-63
2022/08/31 03:18:18;;;;;;;2.60;1.13;;;;;;;25.12;46.92;95096.72;5061421;28;20199;-62
2022/08/31 03:20:45;;;;;;;1.53;0.67;;;;;;;25.15;46.76;95087.97;5065115;28;20322;-62
2022/08/31 03:23:14;;;;;;;1.40;1.30;;;;;;;25.09;47.03;95093.59;5050945;28;20225;-63
2022/08/31 03:25:41;;;;;;;1.10;1.03;;;;;;;25.26;46.70;95097.09;5067018;28;20200;-62
2022/08/31 03:28:08;;;;;;;1.50;1.40;;;;;;;25.17;46.61;95091.88;5032389;28;20683;-62
2022/08/31 03:30:39;;;;;;;1.00;1.00;;;;;;;25.18;46.62;95084.63;5043897;28;20965;-63
2022/08/31 03:33:09;;;;;;;0.70;0.70;;;;;;;25.25;46.42;95090.97;5067263;28;20218;-62
2022/08/31 03:35:42;;;;;;;0.70;0.70;;;;;;;24.91;47.25;95092.31;5057025;28;20205;-61
2022/08/31 03:38:14;;;;;;;5.03;1.77;;;;;;;24.99;47.14;95079.91;5053123;28;20577;-63
2022/08/31 03:40:43;;;;;;;2.87;1.87;;;;;;;24.99;47.18;95082.56;5060895;28;20277;-64
2022/08/31 03:43:11;;;;;;;1.00;1.00;;;;;;;25.16;46.69;95086.88;5071606;28;20236;-64
2022/08/31 03:45:41;;;;;;;1.23;1.13;;;;;;;25.14;46.64;95083.75;5052154;28;20282;-61
2022/08/31 03:48:10;;;;;;;1.43;1.33;;;;;;;25.21;46.58;95089.28;5062017;28;20311;-63
2022/08/31 03:50:42;;;;;;;3.07;1.80;;;;;;;24.91;47.52;95091.53;5054754;28;20651;-62
2022/08/31 03:53:15;;;;;;;17.20;2.03;;;;;;;25.09;46.92;95093.59;5066946;28;20208;-64
2022/08/31 03:55:50;;;;;;;3.50;2.87;;;;;;;24.94;47.34;95091.63;5050589;28;20200;-62
2022/08/31 03:58:17;;;;;;;1.17;1.10;;;;;;;24.90;47.44;95085.41;5049773;28;20192;-62
2022/08/31 04:00:44;;;;;;;2.53;1.53;;;;;;;24.74;47.70;95087.22;5075677;28;20760;-62
2022/08/31 04:03:29;;;;;;;1.50;1.40;;;;;;;24.57;48.69;95098.19;5049636;28;20216;-62
2022/08/31 04:06:28;;;;;;;1.73;1.63;;;;;;;24.58;48.45;95094.38;5067832;28;20204;-64
2022/08/31 04:09:13;;;;;;;6.13;1.23;;;;;;;24.63;48.57;95102.22;5067635;28;20225;-62
2022/08/31 04:12:06;;;;;;;0.83;0.83;;;;;;;24.73;48.18;95100.97;5038932;28;20240;-62
2022/08/31 04:14:52;;;;;;;1.37;1.20;;;;;;;24.59;48.41;95101.31;5038826;28;20274;-62
2022/08/31 04:17:37;;;;;;;1.03;0.97;;;;;;;24.54;48.37;95098.84;5049765;28;20200;-62
2022/08/31 04:20:27;;;;;;;1.60;1.33;;;;;;;24.59;48.75;95103.22;5042008;28;20208;-61
2022/08/31 04:22:56;;;;;;;1.33;1.23;;;;;;;24.53;48.85;95108.03;5050706;28;20207;-65
2022/08/31 04:25:37;;;;;;;0.70;0.70;;;;;;;24.63;48.23;95096.84;5059798;28;20642;-63
2022/08/31 04:28:07;;;;;;;1.83;1.73;;;;;;;24.41;48.87;95093.88;5052868;28;20583;-62
2022/08/31 04:30:40;;;;;;;2.07;1.57;;;;;;;24.64;48.58;95106.44;5061091;28;20311;-63
2022/08/31 04:33:08;;;;;;;1.87;1.67;;;;;;;24.76;48.73;95098.38;5065192;28;20549;-62
2022/08/31 04:35:38;;;;;;;7.43;1.30;;;;;;;24.73;48.55;95103.66;5062041;28;20745;-63
2022/08/31 04:38:07;;;;;;;1.93;1.40;;;;;;;24.76;48.33;95100.31;5079942;28;20666;-61
2022/08/31 04:40:37;;;;;;;0.87;0.87;;;;;;;24.08;49.43;95118.13;5037003;28;20690;-63
2022/08/31 04:43:06;;;;;;;0.80;0.80;;;;;;;24.15;49.06;95110.31;5056189;28;20685;-62
2022/08/31 04:45:32;;;;;;;1.43;1.33;;;;;;;24.35;48.73;95117.44;5059180;28;20208;-64
2022/08/31 04:48:00;;;;;;;3.13;2.03;;;;;;;24.42;49.45;95119.53;5055131;28;20237;-62
2022/08/31 04:50:27;;;;;;;4.23;3.83;;;;;;;24.54;49.17;95109.56;5053030;28;20209;-63
2022/08/31 04:53:07;;;;;;;13.30;8.97;;;;;;;24.95;48.13;95114.66;5058058;28;20207;-63
2022/08/31 04:55:39;;;;;;;9.40;6.43;;;;;;;25.04;48.26;95107.25;5036691;28;20189;-63
2022/08/31 04:58:08;;;;;;;5.27;3.40;;;;;;;24.76;48.28;95106.44;5039998;28;20671;-63
2022/08/31 05:00:36;;;;;;;0.93;0.93;;;;;;;24.74;48.67;95107.91;5050494;28;20185;-62
2022/08/31 05:03:23;;;;;;;2.03;1.70;;;;;;;24.47;49.41;95109.38;5050012;28;20555;-64
2022/08/31 05:05:53;;;;;;;0.80;0.80;;;;;;;24.82;48.91;95099.72;5070254;28;20195;-64
2022/08/31 05:08:20;;;;;;;0.77;0.73;;;;;;;24.50;49.40;95092.63;5045598;28;20701;-63
2022/08/31 05:10:48;;;;;;;1.97;1.60;;;;;;;24.51;49.32;95104.13;5062205;28;20205;-65
2022/08/31 05:13:15;;;;;;;2.63;2.43;;;;;;;24.96;48.84;95100.13;5039473;28;20196;-65
2022/08/31 05:15:43;;;;;;;12.77;11.23;;;;;;;25.32;48.02;95098.41;5041658;28;20197;-64
2022/08/31 05:18:15;;;;;;;3.57;3.27;;;;;;;25.36;48.01;95091.25;5048700;28;20219;-63
2022/08/31 05:20:51;;;;;;;3.50;2.57;;;;;;;25.50;47.48;95092.41;5047276;28;20282;-61
2022/08/31 05:23:18;;;;;;;2.23;1.83;;;;;;;25.44;47.35;95090.31;5049047;28;20262;-62
2022/08/31 05:25:45;;;;;;;1.00;1.00;;;;;;;25.33;47.60;95086.56;5066710;28;20191;-64
2022/08/31 05:28:13;;;;;;;1.90;1.70;;;;;;;24.61;49.71;95088.38;5064645;28;20261;-62
2022/08/31 05:30:43;;;;;;;1.47;1.37;;;;;;;25.20;47.86;95087.75;5039166;28;20192;-63
2022/08/31 05:33:26;;;;;;;2.17;1.83;;;;;;;25.26;48.12;95081.00;5036381;28;20515;-65
2022/08/31 05:35:53;;;;;;;1.60;1.50;;;;;;;25.33;47.77;95083.88;5048186;28;20213;-64
2022/08/31 05:38:20;;;;;;;3.20;1.83;;;;;;;25.15;48.44;95082.59;5078730;28;20249;-62
2022/08/31 05:40:52;;;;;;;1.23;1.17;;;;;;;25.20;48.44;95083.16;5054315;28;20287;-63
2022/08/31 05:43:20;;;;;;;1.10;1.10;;;;;;;25.51;47.42;95077.09;5042400;28;20265;-62
2022/08/31 05:45:48;;;;;;;2.87;2.17;;;;;;;25.76;47.37;95078.50;5048499;28;20605;-62
2022/08/31 05:48:15;;;;;;;1.83;1.73;;;;;;;25.91;46.77;95075.03;5076009;28;20671;-63
2022/08/31 05:50:43;;;;;;;2.47;2.20;;;;;;;25.90;46.69;95073.47;5040395;28;20525;-63
2022/08/31 05:53:10;;;;;;;0.87;0.87;;;;;;;25.84;47.39;95069.47;5048210;28;20201;-63
2022/08/31 05:55:38;;;;;;;1.33;1.23;;;;;;;25.89;46.43;95066.56;5058185;28;20674;-63
2022/08/31 05:58:05;;;;;;;1.40;1.30;;;;;;;25.87;46.45;95071.50;5051670;28;20600;-63
2022/08/31 06:00:33;;;;;;;1.33;1.23;;;;;;;26.22;45.74;95064.28;5068610;28;20187;-62
2022/08/31 06:03:20;;;;;;;1.83;1.73;;;;;;;26.11;46.62;95062.47;5044401;28;20299;-62
2022/08/31 06:05:49;;;;;;;4.17;1.83;;;;;;;26.08;46.83;95055.91;5058363;28;20197;-63
2022/08/31 06:08:17;;;;;;;2.60;2.30;;;;;;;25.72;47.38;95070.38;5050825;28;20654;-64
2022/08/31 06:10:56;;;;;;;2.60;2.40;;;;;;;26.02;47.57;95066.09;5058625;28;20204;-63
2022/08/31 06:13:25;;;;;;;6.87;4.00;;;;;;;26.26;46.80;95070.50;5038698;28;20211;-63
2022/08/31 06:15:52;;;;;;;2.00;1.17;;;;;;;26.78;45.40;95060.16;5050500;28;20185;-64
2022/08/31 06:18:22;;;;;;;2.43;2.30;;;;;;;26.99;45.06;95055.19;5057420;28;20207;-63
2022/08/31 06:20:49;;;;;;;2.20;1.67;;;;;;;27.09;44.88;95045.78;5063102;28;20693;-64
2022/08/31 06:23:16;;;;;;;1.20;1.10;;;;;;;27.00;44.58;95040.63;5038649;28;20655;-63
2022/08/31 06:25:47;;;;;;;0.73;0.73;;;;;;;26.24;46.91;95045.88;5057335;28;20246;-64
2022/08/31 06:28:14;;;;;;;4.57;1.20;;;;;;;26.65;46.13;95047.94;5072561;28;20282;-63
2022/08/31 06:30:41;;;;;;;1.10;1.10;;;;;;;25.80;48.51;95047.91;5057855;28;20230;-62
2022/08/31 06:33:22;;;;;;;1.13;1.07;;;;;;;26.92;45.87;95055.06;5063103;28;20292;-64
2022/08/31 06:36:16;;;;;;;2.50;2.33;;;;;;;26.96;45.19;95050.53;5041530;28;20571;-62
2022/08/31 06:39:11;;;;;;;2.93;1.73;;;;;;;26.99;45.88;95055.19;5051497;28;20225;-63
2022/08/31 06:41:47;;;;;;;2.07;1.20;;;;;;;26.58;46.62;95047.81;5058240;28;20234;-64
2022/08/31 06:44:52;;;;;;;0.87;0.87;;;;;;;27.01;45.70;95052.13;5069872;28;20272;-66
2022/08/31 06:47:24;;;;;;;1.90;1.77;;;;;;;27.12;45.16;95055.03;5053445;28;20204;-65
2022/08/31 06:49:52;;;;;;;1.33;1.23;;;;;;;27.21;44.87;95058.31;5034097;28;20667;-65
2022/08/31 06:52:20;;;;;;;2.63;1.90;;;;;;;27.49;44.18;95056.13;5040185;28;20253;-65
2022/08/31 06:55:04;;;;;;;0.77;0.77;;;;;;;27.34;43.88;95057.81;5067663;28;20200;-66
2022/08/31 06:57:50;;;;;;;1.97;1.80;;;;;;;27.03;44.87;95061.44;5050823;28;20562;-66
2022/08/31 07:00:36;;;;;;;1.37;1.27;;;;;;;26.80;45.68;95060.59;5043953;28;20211;-65
2022/08/31 07:03:31;;;;;;;0.97;0.93;;;;;;;26.88;44.53;95038.06;5071117;28;20199;-68
2022/08/31 07:06:09;;;;;;;1.20;1.20;;;;;;;27.11;45.01;95061.56;5037436;28;20224;-65
2022/08/31 07:08:40;;;;;;;1.47;1.37;;;;;;;27.26;44.28;95063.38;5070668;28;20192;-67
2022/08/31 07:11:15;;;;;;;1.67;1.57;;;;;;;26.78;45.29;95054.00;5047297;28;20220;-64
2022/08/31 07:13:42;;;;;;;2.87;2.67;;;;;;;27.24;44.18;95054.88;5032446;28;20201;-67
2022/08/31 07:16:12;;;;;;;1.17;0.90;;;;;;;27.41;44.04;95054.47;5046090;28;20638;-67
2022/08/31 07:18:42;;;;;;;2.03;1.53;;;;;;;26.07;46.23;95058.94;5055780;28;20700;-65
2022/08/31 07:21:14;;;;;;;0.87;0.87;;;;;;;26.85;45.21;95054.91;5065325;28;20200;-66
2022/08/31 07:23:43;;;;;;;1.33;1.23;;;;;;;27.00;45.63;95059.44;5062760;28;20614;-68
2022/08/31 07:26:16;;;;;;;1.83;1.73;;;;;;;27.28;45.00;95055.75;5070366;28;20200;-66
2022/08/31 07:28:44;;;;;;;1.40;1.30;;;;;;;27.67;44.18;95054.53;5070653;28;20286;-66
2022/08/31 07:31:14;;;;;;;1.53;1.43;;;;;;;28.11;43.77;95058.34;5055843;28;20563;-67
2022/08/31 07:33:42;;;;;;;3.23;2.43;;;;;;;28.08;43.95;95059.09;5049494;28;20197;-66
2022/08/31 07:36:13;;;;;;;1.17;1.07;;;;;;;28.25;42.73;95061.25;5047011;28;20209;-67
2022/08/31 07:44:28;;;;;;;1.60;1.50;;;;;;;28.25;42.75;95041.63;5062419;28;20233;-67
2022/08/31 07:46:56;;;;;;;2.37;1.80;;;;;;;28.64;42.70;95051.81;5071212;28;20184;-68
2022/08/31 07:49:24;;;;;;;0.80;0.80;;;;;;;28.96;41.67;95028.69;5056499;28;20188;-67
2022/08/31 07:52:11;;;;;;;0.80;0.80;;;;;;;29.16;41.76;95050.91;5062301;28;20245;-67
2022/08/31 07:55:06;;;;;;;1.93;1.30;;;;;;;28.93;41.21;95042.16;5064239;28;20290;-67
2022/08/31 07:57:54;;;;;;;1.13;1.07;;;;;;;29.29;41.19;95040.66;5050016;28;20667;-66
2022/08/31 08:00:27;;;;;;;1.20;1.10;;;;;;;29.43;41.07;95038.09;5068006;28;20647;-66
2022/08/31 08:03:05;;;;;;;1.10;1.00;;;;;;;29.25;42.01;95031.75;5050033;28;20201;-67
2022/08/31 08:05:54;;;;;;;1.03;1.03;;;;;;;29.57;40.89;95035.53;5050547;28;20216;-65
2022/08/31 08:08:42;;;;;;;0.67;0.67;;;;;;;29.38;40.99;95030.34;5080540;28;20196;-66
2022/08/31 08:11:20;;;;;;;0.57;0.57;;;;;;;29.58;41.10;95024.34;5054438;28;20640;-67
2022/08/31 08:14:17;;;;;;;1.60;0.87;;;;;;;29.85;40.02;95011.50;5050283;28;20204;-67
2022/08/31 08:16:58;;;;;;;3.77;1.17;;;;;;;29.68;40.54;95034.47;5066043;28;20283;-68
2022/08/31 08:19:34;;;;;;;2.47;1.47;;;;;;;29.74;39.76;95026.84;5066249;28;20193;-66
2022/08/31 08:22:02;;;;;;;0.60;0.60;;;;;;;29.81;40.77;95032.31;5078310;28;20199;-67
2022/08/31 08:24:41;;;;;;;0.77;0.77;;;;;;;30.04;39.00;95021.25;5063233;28;20220;-67
2022/08/31 08:27:34;;;;;;;0.70;0.70;;;;;;;30.39;38.43;95022.31;5067543;28;20196;-68
2022/08/31 08:30:24;;;;;;;1.17;1.10;;;;;;;29.71;39.15;95027.56;5069419;28;20249;-68
2022/08/31 08:32:51;;;;;;;0.80;0.77;;;;;;;28.96;40.26;95031.41;5041303;28;20195;-69
2022/08/31 08:35:19;;;;;;;3.93;2.30;;;;;;;29.59;40.13;95019.72;5059778;28;20197;-66
2022/08/31 08:37:46;;;;;;;0.63;0.63;;;;;;;29.42;41.25;95023.03;5078809;28;20632;-67
2022/08/31 08:40:41;;;;;;;0.70;0.70;;;;;;;30.53;38.86;95022.38;5038915;28;20211;-66
2022/08/31 08:43:17;;;;;;;2.00;1.33;;;;;;;30.26;39.07;95014.88;5052858;28;20215;-68
2022/08/31 08:45:49;;;;;;;0.90;0.90;;;;;;;30.64;38.32;95025.91;5045538;28;20228;-68
2022/08/31 08:48:24;;;;;;;1.53;1.43;;;;;;;30.93;37.79;95017.97;5059442;28;20651;-66
2022/08/31 08:50:52;;;;;;;2.00;1.50;;;;;;;30.99;38.02;95019.13;5040186;28;20196;-66
2022/08/31 08:53:31;;;;;;;7.77;1.90;;;;;;;30.48;38.05;94995.69;5062534;28;20192;-68
2022/08/31 08:56:19;;;;;;;1.10;0.80;;;;;;;30.73;38.35;95006.63;5043183;28;20208;-68
2022/08/31 08:59:00;;;;;;;0.90;0.90;;;;;;;30.40;39.69;95004.91;5047010;28;20295;-69
2022/08/31 09:01:35;;;;;;;3.10;1.87;;;;;;;30.71;39.25;94992.72;5064698;28;20193;-69
2022/08/31 09:04:20;;;;;;;1.00;0.90;;;;;;;31.03;38.08;94996.31;5045726;28;20208;-68
2022/08/31 09:07:41;;;;;;;3.83;2.00;;;;;;;31.29;37.52;94984.41;5046816;28;20196;-68
2022/08/31 09:10:27;;;;;;;3.30;2.10;;;;;;;31.48;36.32;94986.75;5043736;28;20721;-69
2022/08/31 09:13:22;;;;;;;1.30;1.30;;;;;;;31.78;34.55;94979.03;5042638;28;20203;-69
2022/08/31 09:16:10;;;;;;;0.63;0.63;;;;;;;31.49;36.61;94982.91;5066466;28;20558;-69
2022/08/31 09:18:59;;;;;;;4.93;1.87;;;;;;;31.85;36.38;94977.09;5062278;28;20187;-69
2022/08/31 09:21:37;;;;;;;1.53;1.43;;;;;;;31.68;35.65;94968.97;5060249;28;20215;-66
2022/08/31 09:24:28;;;;;;;3.10;1.60;;;;;;;31.88;34.96;94968.19;5053675;28;20212;-68
2022/08/31 09:27:56;;;;;;;2.47;0.80;;;;;;;31.98;35.00;94961.25;5058698;28;20600;-67
2022/08/31 09:30:44;;;;;;;3.13;0.80;;;;;;;32.48;34.30;94965.38;5069860;28;20200;-67
2022/08/31 09:33:22;;;;;;;2.17;1.37;;;;;;;32.15;34.63;94968.56;5030145;28;20205;-68
2022/08/31 09:35:55;;;;;;;0.70;0.63;;;;;;;31.84;33.52;94961.22;5043396;28;20657;-69
2022/08/31 09:38:31;;;;;;;0.90;0.90;;;;;;;32.00;33.84;94961.63;5036527;28;20199;-67
2022/08/31 09:40:58;;;;;;;1.40;1.30;;;;;;;32.23;33.11;94961.97;5063837;28;20218;-68
2022/08/31 09:43:33;;;;;;;2.30;1.70;;;;;;;32.18;32.80;94959.66;5069487;28;20224;-68
2022/08/31 09:46:10;;;;;;;0.83;0.83;;;;;;;32.33;32.33;94955.75;5042140;28;20251;-68
2022/08/31 09:48:42;;;;;;;1.23;1.23;;;;;;;32.24;32.83;94941.81;5042786;28;20191;-71
2022/08/31 09:51:20;;;;;;;1.27;1.00;;;;;;;32.90;32.79;94929.19;5041543;28;20698;-69
2022/08/31 09:56:56;;;;;;;1.10;1.00;;;;;;;33.40;32.06;94924.19;5056634;28;20207;-69
2022/08/31 09:59:46;;;;;;;1.97;1.50;;;;;;;33.76;31.99;94903.72;5040851;28;20295;-69
2022/08/31 10:02:21;;;;;;;1.23;1.13;;;;;;;33.08;32.11;94913.56;5067173;28;20235;-69
2022/08/31 10:05:05;;;;;;;1.67;1.57;;;;;;;32.36;32.94;94908.84;5043235;28;20209;-67
2022/08/31 10:07:55;;;;;;;0.50;0.50;;;;;;;33.37;31.88;94908.72;5057278;28;20195;-70
2022/08/31 10:10:29;;;;;;;0.77;0.77;;;;;;;33.10;31.71;94910.47;5072930;28;20781;-69
2022/08/31 10:13:02;;;;;;;0.97;0.83;;;;;;;33.61;31.81;94915.91;5073682;28;20290;-69
2022/08/31 10:15:42;;;;;;;0.70;0.70;;;;;;;33.24;32.64;94889.41;5059093;28;20201;-68
2022/08/31 10:18:38;;;;;;;3.33;1.67;;;;;;;34.20;31.82;94909.13;5060252;28;20571;-66
2022/08/31 10:21:11;;;;;;;1.20;1.20;;;;;;;33.80;30.85;94899.03;5058885;28;20567;-68
2022/08/31 10:24:19;;;;;;;1.30;1.20;;;;;;;33.93;31.83;94886.47;5073116;28;20230;-67
2022/08/31 10:26:52;;;;;;;0.87;0.87;;;;;;;33.26;31.47;94884.34;5077490;28;20227;-65
2022/08/31 10:29:40;;;;;;;2.53;1.80;;;;;;;33.61;31.66;94881.34;5071419;28;20575;-68
2022/08/31 10:32:32;;;;;;;1.57;1.47;;;;;;;33.93;31.28;94880.25;5050268;28;20579;-69
2022/08/31 10:35:27;;;;;;;0.50;0.50;;;;;;;34.18;30.66;94884.28;5039958;28;20267;-69
2022/08/31 10:38:33;;;;;;;1.73;1.63;;;;;;;33.61;31.80;94880.59;5054793;28;20721;-68
2022/08/31 10:41:06;;;;;;;1.43;1.20;;;;;;;32.80;31.64;94881.13;5053031;28;20645;-68
2022/08/31 10:44:16;;;;;;;0.87;0.87;;;;;;;32.31;32.76;94892.97;5059769;28;20760;-68
2022/08/31 10:46:44;;;;;;;1.33;1.23;;;;;;;32.04;33.12;94891.91;5058183;28;20227;-68
2022/08/31 10:49:11;;;;;;;2.60;1.43;;;;;;;31.65;33.92;94910.91;5072511;28;20266;-67
2022/08/31 10:52:05;;;;;;;3.40;1.90;;;;;;;31.40;34.70;94915.59;5043170;28;20206;-68
2022/08/31 10:54:32;;;;;;;1.40;1.03;;;;;;;31.24;34.71;94917.09;5074252;28;20204;-68
2022/08/31 10:57:18;;;;;;;1.20;1.20;;;;;;;31.57;34.43;94919.44;5043912;28;20232;-70
2022/08/31 11:01:01;;;;;;;0.83;0.83;;;;;;;31.05;35.55;94914.75;5052278;28;20209;-69
2022/08/31 11:03:24;;;;;;;0.70;0.70;;;;;;;30.32;36.92;94911.41;5043814;28;20284;-69
2022/08/31 11:05:59;;;;;;;1.10;1.07;;;;;;;30.42;36.02;94932.31;5057154;28;20226;-68
2022/08/31 11:08:47;;;;;;;9.43;2.20;;;;;;;30.63;36.11;94937.81;5059348;28;20207;-67
2022/08/31 11:11:23;;;;;;;0.80;0.80;;;;;;;30.34;36.29;94928.03;5032370;28;20193;-68
2022/08/31 11:14:44;;;;;;;1.17;1.07;;;;;;;30.56;36.04;94935.09;5061992;28;20295;-68
2022/08/31 11:17:41;;;;;;;1.07;1.00;;;;;;;30.23;36.34;94939.91;5047878;28;20202;-66
2022/08/31 11:20:53;;;;;;;1.33;0.87;;;;;;;30.44;36.28;94946.22;5050994;28;20197;-68
2022/08/31 11:23:33;;;;;;;1.63;1.50;;;;;;;30.03;37.60;94942.13;5080549;28;20200;-70
2022/08/31 11:26:37;;;;;;;4.80;0.90;;;;;;;30.00;37.99;94937.47;5087489;28;20214;-67
2022/08/31 11:29:27;;;;;;;2.37;1.80;;;;;;;30.16;36.86;94924.44;5070288;28;20200;-67
2022/08/31 11:32:07;;;;;;;0.73;0.73;;;;;;;29.17;37.73;94927.56;5052610;28;20200;-67
2022/08/31 11:34:46;;;;;;;0.50;0.50;;;;;;;29.40;37.34;94920.03;5062946;28;20207;-68
2022/08/31 11:37:50;;;;;;;0.80;0.80;;;;;;;29.13;38.56;94921.34;5053046;28;20200;-69
2022/08/31 11:40:42;;;;;;;1.03;0.70;;;;;;;28.92;38.65;94922.66;5030495;28;20197;-66
2022/08/31 11:43:31;;;;;;;1.63;1.53;;;;;;;28.92;38.64;94922.66;5039345;28;20224;-67
2022/08/31 11:46:23;;;;;;;1.20;1.17;;;;;;;29.20;37.74;94926.81;5064220;28;20219;-67
2022/08/31 11:48:53;;;;;;;3.33;1.37;;;;;;;28.98;38.34;94926.59;5064066;28;20204;-66
2022/08/31 11:51:43;;;;;;;4.00;1.90;;;;;;;29.06;37.75;94921.25;5042089;28;20211;-65
2022/08/31 11:54:25;;;;;;;0.87;0.87;;;;;;;29.74;36.72;94924.19;5049238;28;20185;-68
2022/08/31 11:56:56;;;;;;;0.80;0.80;;;;;;;29.45;36.71;94917.75;5050789;28;20197;-67
2022/08/31 11:59:34;;;;;;;1.73;1.60;;;;;;;29.24;36.97;94911.44;5055071;28;20209;-67
2022/08/31 12:02:19;;;;;;;0.63;0.63;;;;;;;29.85;36.23;94920.41;5045930;28;20201;-66
2022/08/31 12:04:59;;;;;;;0.57;0.57;;;;;;;29.74;36.28;94918.78;5049888;28;20201;-67
2022/08/31 12:07:35;;;;;;;1.03;0.87;;;;;;;29.87;36.43;94911.94;5062505;28;20196;-68
2022/08/31 12:10:14;;;;;;;1.70;1.20;;;;;;;30.41;35.63;94919.97;5061423;28;20206;-68
2022/08/31 12:13:17;;;;;;;1.43;1.33;;;;;;;29.99;36.42;94925.13;5043791;28;20281;-67
2022/08/31 12:16:00;;;;;;;1.97;1.83;;;;;;;30.40;35.53;94934.63;5054430;28;20631;-67
2022/08/31 12:19:05;;;;;;;9.60;2.50;;;;;;;29.80;36.30;94933.47;5055965;28;20197;-66
2022/08/31 12:25:10;;;;;;;0.50;0.50;;;;;;;29.90;36.00;94938.97;5038496;28;20235;-66
2022/08/31 12:28:14;;;;;;;2.60;2.07;;;;;;;30.46;35.87;94949.31;5063363;28;20655;-66
2022/08/31 12:30:53;;;;;;;0.97;0.97;;;;;;;30.77;35.29;94951.38;5038094;28;20556;-68
2022/08/31 12:33:26;;;;;;;2.50;1.77;;;;;;;30.99;35.19;94959.56;5069635;28;20641;-66